createdAt,value
2018-08-14T00:00:18.474Z,1006.6
2018-08-14T00:01:19.858Z,1006.6
2018-08-14T00:02:41.330Z,1006.6
2018-08-14T00:03:42.722Z,1006.7
2018-08-14T00:05:04.218Z,1006.7
2018-08-14T00:06:05.602Z,1006.6
2018-08-14T00:07:27.075Z,1006.6
2018-08-14T00:08:28.466Z,1006.7
2018-08-14T00:09:49.938Z,1006.6
2018-08-14T00:10:51.330Z,1006.7
2018-08-14T00:12:12.827Z,1006.7
2018-08-14T00:13:14.210Z,1006.7
2018-08-14T00:14:35.682Z,1006.7
2018-08-14T00:15:37.076Z,1006.7
2018-08-14T00:16:58.547Z,1006.7
2018-08-14T00:17:59.939Z,1006.7
2018-08-14T00:19:21.426Z,1006.7
2018-08-14T00:20:22.810Z,1006.7
2018-08-14T00:21:44.283Z,1006.7
2018-08-14T00:22:45.666Z,1006.7
2018-08-14T00:24:07.147Z,1006.6
2018-08-14T00:25:08.530Z,1006.7
2018-08-14T00:26:30.027Z,1006.7
2018-08-14T00:27:31.410Z,1006.7
2018-08-14T00:28:52.882Z,1006.7
2018-08-14T00:29:54.274Z,1006.7
2018-08-14T00:31:15.746Z,1006.7
2018-08-14T00:32:17.139Z,1006.7
2018-08-14T00:33:38.635Z,1006.7
2018-08-14T00:34:40.019Z,1006.7
2018-08-14T00:36:01.490Z,1006.7
2018-08-14T00:37:02.885Z,1006.7
2018-08-14T00:38:24.363Z,1006.7
2018-08-14T00:39:25.756Z,1006.7
2018-08-14T00:40:47.243Z,1006.7
2018-08-14T00:41:48.627Z,1006.6
2018-08-14T00:43:10.107Z,1006.7
2018-08-14T00:44:11.491Z,1006.7
2018-08-14T00:45:32.963Z,1006.7
2018-08-14T00:46:34.355Z,1006.7
2018-08-14T00:47:55.844Z,1006.7
2018-08-14T00:48:57.228Z,1006.7
2018-08-14T00:50:18.699Z,1006.7
2018-08-14T00:51:20.092Z,1006.7
2018-08-14T00:52:41.564Z,1006.7
2018-08-14T00:53:42.955Z,1006.7
2018-08-14T00:55:04.452Z,1006.6
2018-08-14T00:56:05.835Z,1006.7
2018-08-14T00:57:27.308Z,1006.7
2018-08-14T00:58:28.701Z,1006.7
2018-08-14T00:59:50.173Z,1006.7
2018-08-14T01:00:51.567Z,1006.7
2018-08-14T01:02:13.052Z,1006.6
2018-08-14T01:03:14.436Z,1006.7
2018-08-14T01:04:35.916Z,1006.7
2018-08-14T01:05:37.299Z,1006.6
2018-08-14T01:06:58.772Z,1006.6
2018-08-14T01:08:00.164Z,1006.7
2018-08-14T01:09:21.652Z,1006.7
2018-08-14T01:10:23.036Z,1006.7
2018-08-14T01:11:44.516Z,1006.7
2018-08-14T01:12:45.899Z,1006.7
2018-08-14T01:14:07.372Z,1006.7
2018-08-14T01:15:08.765Z,1006.7
2018-08-14T01:16:30.268Z,1006.7
2018-08-14T01:17:31.652Z,1006.7
2018-08-14T01:18:53.124Z,1006.7
2018-08-14T01:19:54.508Z,1006.7
2018-08-14T01:21:15.988Z,1006.7
2018-08-14T01:22:17.381Z,1006.7
2018-08-14T01:23:38.868Z,1006.8
2018-08-14T01:24:40.252Z,1006.8
2018-08-14T01:26:01.725Z,1006.8
2018-08-14T01:27:03.108Z,1006.8
2018-08-14T01:28:24.591Z,1006.7
2018-08-14T01:29:25.972Z,1006.8
2018-08-14T01:30:47.461Z,1006.8
2018-08-14T01:31:48.844Z,1006.8
2018-08-14T01:33:10.325Z,1006.8
2018-08-14T01:34:11.708Z,1006.8
2018-08-14T01:35:33.181Z,1006.8
2018-08-14T01:36:34.565Z,1006.8
2018-08-14T01:37:56.060Z,1006.8
2018-08-14T01:38:57.445Z,1006.8
2018-08-14T01:40:18.916Z,1006.8
2018-08-14T01:41:20.309Z,1006.8
2018-08-14T01:42:41.782Z,1006.8
2018-08-14T01:43:43.173Z,1006.8
2018-08-14T01:45:04.661Z,1006.8
2018-08-14T01:46:06.045Z,1006.8
2018-08-14T01:47:27.527Z,1006.8
2018-08-14T01:48:28.911Z,1006.8
2018-08-14T01:49:50.381Z,1006.8
2018-08-14T01:50:51.765Z,1006.8
2018-08-14T01:52:13.254Z,1006.8
2018-08-14T01:53:14.637Z,1006.8
2018-08-14T01:54:36.110Z,1006.9
2018-08-14T01:55:37.493Z,1006.8
2018-08-14T01:56:58.976Z,1006.9
2018-08-14T01:58:00.358Z,1006.9
2018-08-14T01:59:21.848Z,1006.9
2018-08-14T02:00:23.229Z,1006.9
2018-08-14T02:01:44.703Z,1006.9
2018-08-14T02:02:46.094Z,1006.9
2018-08-14T02:04:07.565Z,1006.8
2018-08-14T02:05:08.960Z,1006.9
2018-08-14T02:06:30.453Z,1006.9
2018-08-14T02:07:31.838Z,1006.9
2018-08-14T02:08:53.309Z,1006.9
2018-08-14T02:09:54.695Z,1006.9
2018-08-14T02:11:16.174Z,1006.9
2018-08-14T02:12:17.560Z,1006.8
2018-08-14T02:13:39.054Z,1006.8
2018-08-14T02:14:40.438Z,1006.8
2018-08-14T02:16:01.910Z,1006.9
2018-08-14T02:17:03.294Z,1006.8
2018-08-14T02:18:24.769Z,1006.8
2018-08-14T02:19:26.150Z,1006.8
2018-08-14T02:20:47.647Z,1006.8
2018-08-14T02:21:49.029Z,1006.9
2018-08-14T02:23:10.502Z,1006.9
2018-08-14T02:24:11.894Z,1006.9
2018-08-14T02:25:33.367Z,1006.9
2018-08-14T02:26:34.757Z,1006.9
2018-08-14T02:27:56.246Z,1006.9
2018-08-14T02:28:57.630Z,1006.9
2018-08-14T02:30:19.102Z,1006.9
2018-08-14T02:31:20.486Z,1006.9
2018-08-14T02:32:41.959Z,1006.9
2018-08-14T02:33:43.342Z,1006.9
2018-08-14T02:35:04.838Z,1007.0
2018-08-14T02:36:06.222Z,1006.9
2018-08-14T02:37:27.695Z,1007.0
2018-08-14T02:38:29.088Z,1007.0
2018-08-14T02:39:50.566Z,1006.9
2018-08-14T02:40:51.942Z,1006.9
2018-08-14T02:42:13.464Z,1006.9
2018-08-14T02:43:14.854Z,1007.0
2018-08-14T02:44:36.334Z,1006.9
2018-08-14T02:45:37.718Z,1007.0
2018-08-14T02:46:59.191Z,1007.0
2018-08-14T02:48:00.582Z,1007.0
2018-08-14T02:49:22.071Z,1007.0
2018-08-14T02:50:23.463Z,1007.0
2018-08-14T02:51:44.943Z,1007.0
2018-08-14T02:52:46.329Z,1006.9
2018-08-14T02:54:07.801Z,1006.9
2018-08-14T02:55:09.190Z,1006.9
2018-08-14T02:56:30.679Z,1006.9
2018-08-14T02:57:32.063Z,1006.9
2018-08-14T02:58:53.543Z,1006.9
2018-08-14T02:59:54.934Z,1007.0
2018-08-14T03:01:16.408Z,1006.9
2018-08-14T03:02:17.799Z,1007.0
2018-08-14T03:03:39.296Z,1006.9
2018-08-14T03:04:40.679Z,1006.9
2018-08-14T03:06:02.152Z,1007.0
2018-08-14T03:07:03.536Z,1006.9
2018-08-14T03:08:25.007Z,1006.9
2018-08-14T03:09:26.393Z,1007.0
2018-08-14T03:10:48.032Z,1007.0
2018-08-14T03:11:49.415Z,1006.9
2018-08-14T03:13:10.887Z,1007.0
2018-08-14T03:14:12.273Z,1007.0
2018-08-14T03:15:33.745Z,1007.0
2018-08-14T03:16:35.127Z,1007.0
2018-08-14T03:17:56.767Z,1007.0
2018-08-14T03:18:58.152Z,1007.0
2018-08-14T03:20:19.623Z,1007.1
2018-08-14T03:21:21.024Z,1007.0
2018-08-14T03:22:42.496Z,1007.1
2018-08-14T03:23:43.880Z,1007.1
2018-08-14T03:25:05.368Z,1007.1
2018-08-14T03:26:06.752Z,1007.1
2018-08-14T03:27:28.226Z,1007.2
2018-08-14T03:28:29.610Z,1007.2
2018-08-14T03:29:51.080Z,1007.2
2018-08-14T03:30:52.464Z,1007.2
2018-08-14T03:32:13.961Z,1007.2
2018-08-14T03:33:15.343Z,1007.2
2018-08-14T03:34:36.815Z,1007.2
2018-08-14T03:35:38.208Z,1007.2
2018-08-14T03:36:59.680Z,1007.2
2018-08-14T03:38:01.072Z,1007.2
2018-08-14T03:39:22.711Z,1007.1
2018-08-14T03:40:24.105Z,1007.1
2018-08-14T03:41:45.576Z,1007.1
2018-08-14T03:42:46.963Z,1007.2
2018-08-14T03:44:08.443Z,1007.2
2018-08-14T03:45:09.823Z,1007.2
2018-08-14T03:46:31.320Z,1007.2
2018-08-14T03:47:32.696Z,1007.2
2018-08-14T03:48:54.168Z,1007.2
2018-08-14T03:49:55.560Z,1007.2
2018-08-14T03:51:17.031Z,1007.2
2018-08-14T03:52:18.426Z,1007.2
2018-08-14T03:53:39.912Z,1007.3
2018-08-14T03:54:41.296Z,1007.2
2018-08-14T03:56:02.768Z,1007.3
2018-08-14T03:57:04.160Z,1007.3
2018-08-14T03:58:25.632Z,1007.3
2018-08-14T03:59:27.024Z,1007.3
2018-08-14T04:00:48.521Z,1007.3
2018-08-14T04:01:49.904Z,1007.3
2018-08-14T04:03:11.376Z,1007.3
2018-08-14T04:04:12.760Z,1007.4
2018-08-14T04:05:34.240Z,1007.4
2018-08-14T04:06:35.632Z,1007.4
2018-08-14T04:07:57.616Z,1007.4
2018-08-14T04:08:59.000Z,1007.4
2018-08-14T04:10:20.472Z,1007.4
2018-08-14T04:11:21.864Z,1007.4
2018-08-14T04:12:43.336Z,1007.4
2018-08-14T04:13:44.729Z,1007.4
2018-08-14T04:15:06.225Z,1007.4
2018-08-14T04:16:07.609Z,1007.4
2018-08-14T04:17:29.080Z,1007.4
2018-08-14T04:18:30.491Z,1007.4
2018-08-14T04:19:51.944Z,1007.4
2018-08-14T04:20:53.337Z,1007.5
2018-08-14T04:22:14.824Z,1007.5
2018-08-14T04:23:16.209Z,1007.5
2018-08-14T04:24:37.681Z,1007.5
2018-08-14T04:25:39.065Z,1007.5
2018-08-14T04:27:00.545Z,1007.5
2018-08-14T04:28:01.929Z,1007.5
2018-08-14T04:29:23.425Z,1007.5
2018-08-14T04:30:24.809Z,1007.5
2018-08-14T04:31:46.281Z,1007.5
2018-08-14T04:32:47.673Z,1007.5
2018-08-14T04:34:09.159Z,1007.6
2018-08-14T04:35:10.545Z,1007.5
2018-08-14T04:36:32.041Z,1007.6
2018-08-14T04:37:33.426Z,1007.6
2018-08-14T04:38:54.898Z,1007.6
2018-08-14T04:39:56.290Z,1007.6
2018-08-14T04:41:17.761Z,1007.6
2018-08-14T04:42:19.156Z,1007.7
2018-08-14T04:43:40.650Z,1007.7
2018-08-14T04:44:42.037Z,1007.6
2018-08-14T04:46:03.517Z,1007.7
2018-08-14T04:47:04.898Z,1007.7
2018-08-14T04:48:26.378Z,1007.7
2018-08-14T04:49:27.762Z,1007.8
2018-08-14T04:50:49.250Z,1007.8
2018-08-14T04:51:50.634Z,1007.9
2018-08-14T04:53:12.106Z,1007.8
2018-08-14T04:54:13.501Z,1007.8
2018-08-14T04:55:34.978Z,1007.9
2018-08-14T04:56:36.362Z,1007.9
2018-08-14T04:57:58.002Z,1007.9
2018-08-14T04:58:59.386Z,1007.9
2018-08-14T05:00:20.866Z,1007.9
2018-08-14T05:01:22.258Z,1007.9
2018-08-14T05:02:43.734Z,1007.9
2018-08-14T05:03:45.116Z,1007.9
2018-08-14T05:05:06.606Z,1008.0
2018-08-14T05:06:07.986Z,1008.0
2018-08-14T05:07:29.469Z,1008.0
2018-08-14T05:08:30.858Z,1008.0
2018-08-14T05:09:52.330Z,1008.0
2018-08-14T05:10:53.723Z,1008.0
2018-08-14T05:12:15.218Z,1008.0
2018-08-14T05:13:16.602Z,1008.1
2018-08-14T05:14:38.100Z,1008.1
2018-08-14T05:15:39.426Z,1008.1
2018-08-14T05:17:00.898Z,1008.2
2018-08-14T05:18:02.290Z,1008.2
2018-08-14T05:19:23.778Z,1008.2
2018-08-14T05:20:25.163Z,1008.2
2018-08-14T05:21:46.635Z,1008.2
2018-08-14T05:22:48.026Z,1008.2
2018-08-14T05:24:09.515Z,1008.3
2018-08-14T05:25:10.899Z,1008.3
2018-08-14T05:26:32.394Z,1008.3
2018-08-14T05:27:33.778Z,1008.3
2018-08-14T05:28:55.258Z,1008.3
2018-08-14T05:29:56.643Z,1008.3
2018-08-14T05:31:18.115Z,1008.3
2018-08-14T05:32:19.507Z,1008.3
2018-08-14T05:33:41.168Z,1008.3
2018-08-14T05:34:42.354Z,1008.3
2018-08-14T05:36:03.843Z,1008.3
2018-08-14T05:37:05.227Z,1008.4
2018-08-14T05:38:26.706Z,1008.4
2018-08-14T05:39:28.098Z,1008.4
2018-08-14T05:40:49.587Z,1008.5
2018-08-14T05:41:50.978Z,1008.4
2018-08-14T05:43:12.459Z,1008.4
2018-08-14T05:44:13.851Z,1008.4
2018-08-14T05:45:35.331Z,1008.5
2018-08-14T05:46:36.723Z,1008.5
2018-08-14T05:47:58.219Z,1008.5
2018-08-14T05:48:59.603Z,1008.5
2018-08-14T05:50:21.083Z,1008.5
2018-08-14T05:51:22.467Z,1008.5
2018-08-14T05:52:43.947Z,1008.5
2018-08-14T05:53:45.339Z,1008.5
2018-08-14T05:55:06.830Z,1008.5
2018-08-14T05:56:08.219Z,1008.5
2018-08-14T05:57:29.700Z,1008.5
2018-08-14T05:58:31.083Z,1008.6
2018-08-14T05:59:52.563Z,1008.6
2018-08-14T06:00:53.964Z,1008.5
2018-08-14T06:02:15.467Z,1008.5
2018-08-14T06:03:16.859Z,1008.5
2018-08-14T06:04:38.340Z,1008.5
2018-08-14T06:05:39.731Z,1008.5
2018-08-14T06:07:01.212Z,1008.6
2018-08-14T06:08:02.597Z,1008.5
2018-08-14T06:09:24.084Z,1008.5
2018-08-14T06:10:25.468Z,1008.5
2018-08-14T06:11:46.949Z,1008.5
2018-08-14T06:12:48.340Z,1008.6
2018-08-14T06:14:09.811Z,1008.6
2018-08-14T06:15:11.204Z,1008.6
2018-08-14T06:16:32.700Z,1008.5
2018-08-14T06:17:34.084Z,1008.6
2018-08-14T06:18:55.556Z,1008.6
2018-08-14T06:19:56.948Z,1008.7
2018-08-14T06:21:18.430Z,1008.7
2018-08-14T06:22:19.820Z,1008.7
2018-08-14T06:23:41.308Z,1008.7
2018-08-14T06:24:42.699Z,1008.7
2018-08-14T06:26:04.181Z,1008.7
2018-08-14T06:27:05.572Z,1008.7
2018-08-14T06:28:27.107Z,1008.7
2018-08-14T06:29:28.437Z,1008.7
2018-08-14T06:30:49.932Z,1008.7
2018-08-14T06:31:51.327Z,1008.8
2018-08-14T06:33:12.796Z,1008.7
2018-08-14T06:34:14.241Z,1008.7
2018-08-14T06:35:35.661Z,1008.8
2018-08-14T06:36:37.053Z,1008.8
2018-08-14T06:37:58.551Z,1008.8
2018-08-14T06:38:59.933Z,1008.9
2018-08-14T06:40:21.404Z,1008.9
2018-08-14T06:41:22.797Z,1008.9
2018-08-14T06:42:44.276Z,1008.9
2018-08-14T06:43:45.668Z,1009.0
2018-08-14T06:45:07.165Z,1008.9
2018-08-14T06:46:08.557Z,1009.0
2018-08-14T06:47:30.042Z,1009.0
2018-08-14T06:48:31.429Z,1009.0
2018-08-14T06:49:52.909Z,1009.1
2018-08-14T06:50:54.302Z,1009.1
2018-08-14T06:52:15.788Z,1009.1
2018-08-14T06:53:17.181Z,1009.1
2018-08-14T06:54:38.709Z,1009.2
2018-08-14T06:55:40.045Z,1009.2
2018-08-14T06:57:01.527Z,1009.1
2018-08-14T06:58:02.917Z,1009.2
2018-08-14T06:59:24.413Z,1009.2
2018-08-14T07:00:25.805Z,1009.2
2018-08-14T07:01:47.301Z,1009.3
2018-08-14T07:02:48.685Z,1009.3
2018-08-14T07:04:10.165Z,1009.3
2018-08-14T07:05:11.557Z,1009.3
2018-08-14T07:06:33.054Z,1009.3
2018-08-14T07:07:34.437Z,1009.3
2018-08-14T07:08:55.917Z,1009.4
2018-08-14T07:09:57.309Z,1009.4
2018-08-14T07:11:18.781Z,1009.4
2018-08-14T07:12:20.174Z,1009.4
2018-08-14T07:13:41.669Z,1009.5
2018-08-14T07:14:43.062Z,1009.5
2018-08-14T07:16:04.541Z,1009.5
2018-08-14T07:17:05.933Z,1009.5
2018-08-14T07:18:27.414Z,1009.5
2018-08-14T07:19:28.805Z,1009.5
2018-08-14T07:20:50.294Z,1009.5
2018-08-14T07:21:51.678Z,1009.5
2018-08-14T07:23:13.150Z,1009.5
2018-08-14T07:24:14.542Z,1009.5
2018-08-14T07:25:36.022Z,1009.5
2018-08-14T07:26:37.415Z,1009.6
2018-08-14T07:27:58.920Z,1009.6
2018-08-14T07:29:00.310Z,1009.6
2018-08-14T07:30:21.793Z,1009.6
2018-08-14T07:31:23.182Z,1009.7
2018-08-14T07:32:44.655Z,1009.7
2018-08-14T07:33:46.046Z,1009.6
2018-08-14T07:35:07.550Z,1009.6
2018-08-14T07:36:08.937Z,1009.7
2018-08-14T07:37:30.414Z,1009.6
2018-08-14T07:38:31.806Z,1009.6
2018-08-14T07:39:53.286Z,1009.7
2018-08-14T07:40:54.679Z,1009.7
2018-08-14T07:42:16.166Z,1009.7
2018-08-14T07:43:17.550Z,1009.7
2018-08-14T07:44:39.022Z,1009.7
2018-08-14T07:45:40.414Z,1009.7
2018-08-14T07:47:01.895Z,1009.8
2018-08-14T07:48:03.289Z,1009.8
2018-08-14T07:49:24.785Z,1009.8
2018-08-14T07:50:26.166Z,1009.8
2018-08-14T07:51:47.647Z,1009.9
2018-08-14T07:52:49.038Z,1009.9
2018-08-14T07:54:10.519Z,1009.9
2018-08-14T07:55:11.911Z,1009.8
2018-08-14T07:56:33.415Z,1009.8
2018-08-14T07:57:34.809Z,1009.9
2018-08-14T07:58:56.287Z,1009.9
2018-08-14T07:59:57.679Z,1009.9
2018-08-14T08:01:19.158Z,1009.9
2018-08-14T08:02:20.550Z,1009.9
2018-08-14T08:03:42.047Z,1010.0
2018-08-14T08:04:43.431Z,1010.0
2018-08-14T08:06:04.925Z,1009.9
2018-08-14T08:07:06.303Z,1009.9
2018-08-14T08:08:27.775Z,1010.0
2018-08-14T08:09:29.167Z,1010.0
2018-08-14T08:10:50.655Z,1010.0
2018-08-14T08:11:52.043Z,1010.0
2018-08-14T08:13:13.519Z,1010.0
2018-08-14T08:14:14.911Z,1010.0
2018-08-14T08:15:36.383Z,1010.1
2018-08-14T08:16:37.775Z,1010.1
2018-08-14T08:17:59.546Z,1010.2
2018-08-14T08:19:00.935Z,1010.1
2018-08-14T08:20:22.418Z,1010.1
2018-08-14T08:21:23.807Z,1010.1
2018-08-14T08:22:45.279Z,1010.1
2018-08-14T08:23:46.674Z,1010.1
2018-08-14T08:25:08.160Z,1010.1
2018-08-14T08:26:09.556Z,1010.1
2018-08-14T08:27:31.031Z,1010.1
2018-08-14T08:28:32.424Z,1010.1
2018-08-14T08:29:53.896Z,1010.1
2018-08-14T08:30:55.288Z,1010.1
2018-08-14T08:32:16.784Z,1010.1
2018-08-14T08:33:18.176Z,1010.2
2018-08-14T08:34:39.680Z,1010.1
2018-08-14T08:35:41.048Z,1010.1
2018-08-14T08:37:02.536Z,1010.1
2018-08-14T08:38:03.919Z,1010.2
2018-08-14T08:39:25.560Z,1010.2
2018-08-14T08:40:26.953Z,1010.1
2018-08-14T08:41:48.501Z,1010.1
2018-08-14T08:42:49.824Z,1010.1
2018-08-14T08:44:11.305Z,1010.2
2018-08-14T08:45:12.696Z,1010.2
2018-08-14T08:46:34.184Z,1010.2
2018-08-14T08:47:35.568Z,1010.3
2018-08-14T08:48:57.107Z,1010.2
2018-08-14T08:49:58.440Z,1010.3
2018-08-14T08:51:19.920Z,1010.5
2018-08-14T08:52:21.312Z,1010.3
2018-08-14T08:53:42.889Z,1010.3
2018-08-14T08:54:44.282Z,1010.4
2018-08-14T08:56:05.765Z,1010.3
2018-08-14T08:57:07.152Z,1010.3
2018-08-14T08:58:28.695Z,1010.4
2018-08-14T08:59:29.987Z,1010.3
2018-08-14T09:00:51.472Z,1010.3
2018-08-14T09:01:52.856Z,1010.3
2018-08-14T09:03:14.337Z,1010.3
2018-08-14T09:04:15.736Z,1010.3
2018-08-14T09:05:37.216Z,1010.4
2018-08-14T09:06:38.609Z,1010.3
2018-08-14T09:08:00.105Z,1010.4
2018-08-14T09:09:01.498Z,1010.3
2018-08-14T09:10:22.977Z,1010.4
2018-08-14T09:11:24.369Z,1010.4
2018-08-14T09:12:45.857Z,1010.4
2018-08-14T09:13:47.250Z,1010.4
2018-08-14T09:15:08.746Z,1010.3
2018-08-14T09:16:10.137Z,1010.4
2018-08-14T09:17:31.618Z,1010.4
2018-08-14T09:18:33.012Z,1010.3
2018-08-14T09:19:54.497Z,1010.4
2018-08-14T09:20:55.889Z,1010.4
2018-08-14T09:22:17.377Z,1010.5
2018-08-14T09:23:18.772Z,1010.5
2018-08-14T09:24:40.241Z,1010.4
2018-08-14T09:25:41.634Z,1010.5
2018-08-14T09:27:03.106Z,1010.5
2018-08-14T09:28:04.497Z,1010.5
2018-08-14T09:29:25.986Z,1010.5
2018-08-14T09:30:27.369Z,1010.5
2018-08-14T09:31:48.846Z,1010.4
2018-08-14T09:32:50.235Z,1010.5
2018-08-14T09:34:11.714Z,1010.5
2018-08-14T09:35:13.106Z,1010.5
2018-08-14T09:36:34.602Z,1010.5
2018-08-14T09:37:35.986Z,1010.5
2018-08-14T09:38:57.466Z,1010.5
2018-08-14T09:39:58.858Z,1010.6
2018-08-14T09:41:20.338Z,1010.5
2018-08-14T09:42:21.729Z,1010.5
2018-08-14T09:43:43.385Z,1010.4
2018-08-14T09:44:44.769Z,1010.5
2018-08-14T09:46:06.257Z,1010.5
2018-08-14T09:47:07.652Z,1010.5
2018-08-14T09:48:29.131Z,1010.5
2018-08-14T09:49:30.521Z,1010.5
2018-08-14T09:50:52.165Z,1010.6
2018-08-14T09:51:53.554Z,1010.6
2018-08-14T09:53:15.036Z,1010.6
2018-08-14T09:54:16.434Z,1010.6
2018-08-14T09:55:37.906Z,1010.6
2018-08-14T09:56:39.302Z,1010.6
2018-08-14T09:58:00.794Z,1010.6
2018-08-14T09:59:02.186Z,1010.7
2018-08-14T10:00:23.666Z,1010.7
2018-08-14T10:01:25.058Z,1010.7
2018-08-14T10:02:46.541Z,1010.7
2018-08-14T10:03:47.930Z,1010.8
2018-08-14T10:05:09.428Z,1010.7
2018-08-14T10:06:10.818Z,1010.7
2018-08-14T10:07:32.306Z,1010.7
2018-08-14T10:08:33.701Z,1010.7
2018-08-14T10:09:55.178Z,1010.7
2018-08-14T10:10:56.570Z,1010.7
2018-08-14T10:12:18.066Z,1010.7
2018-08-14T10:13:19.459Z,1010.7
2018-08-14T10:14:40.973Z,1010.7
2018-08-14T10:15:42.330Z,1010.7
2018-08-14T10:17:03.811Z,1010.7
2018-08-14T10:18:05.205Z,1010.7
2018-08-14T10:19:26.690Z,1010.7
2018-08-14T10:20:28.083Z,1010.7
2018-08-14T10:21:49.569Z,1010.7
2018-08-14T10:22:50.955Z,1010.7
2018-08-14T10:24:12.434Z,1010.8
2018-08-14T10:25:13.830Z,1010.8
2018-08-14T10:26:35.376Z,1010.7
2018-08-14T10:27:36.715Z,1010.8
2018-08-14T10:28:58.249Z,1010.7
2018-08-14T10:29:59.587Z,1010.8
2018-08-14T10:31:21.075Z,1010.7
2018-08-14T10:32:22.467Z,1010.7
2018-08-14T10:33:43.963Z,1010.8
2018-08-14T10:34:45.355Z,1010.7
2018-08-14T10:36:06.842Z,1010.8
2018-08-14T10:37:08.243Z,1010.8
2018-08-14T10:38:29.716Z,1010.9
2018-08-14T10:39:31.119Z,1010.9
2018-08-14T10:40:52.603Z,1010.9
2018-08-14T10:41:53.996Z,1010.9
2018-08-14T10:43:15.475Z,1010.9
2018-08-14T10:44:16.867Z,1010.8
2018-08-14T10:45:38.355Z,1010.9
2018-08-14T10:46:39.747Z,1010.9
2018-08-14T10:48:01.252Z,1011.0
2018-08-14T10:49:02.643Z,1010.9
2018-08-14T10:50:24.133Z,1010.9
2018-08-14T10:51:25.527Z,1011.0
2018-08-14T10:52:47.006Z,1011.0
2018-08-14T10:53:48.399Z,1011.0
2018-08-14T10:55:09.892Z,1010.9
2018-08-14T10:56:11.284Z,1010.9
2018-08-14T10:57:32.763Z,1011.0
2018-08-14T10:58:34.186Z,1011.0
2018-08-14T10:59:55.636Z,1011.0
2018-08-14T11:00:57.028Z,1011.0
2018-08-14T11:02:18.531Z,1011.0
2018-08-14T11:03:19.923Z,1011.0
2018-08-14T11:04:41.442Z,1011.0
2018-08-14T11:05:42.798Z,1011.1
2018-08-14T11:07:04.284Z,1011.1
2018-08-14T11:08:05.667Z,1011.0
2018-08-14T11:09:27.155Z,1011.0
2018-08-14T11:10:28.540Z,1011.0
2018-08-14T11:11:50.020Z,1011.1
2018-08-14T11:12:51.411Z,1011.0
2018-08-14T11:14:12.900Z,1011.0
2018-08-14T11:15:14.292Z,1011.0
2018-08-14T11:16:35.797Z,1011.0
2018-08-14T11:17:37.180Z,1011.0
2018-08-14T11:18:58.668Z,1011.1
2018-08-14T11:20:00.058Z,1011.0
2018-08-14T11:21:21.540Z,1011.0
2018-08-14T11:22:22.932Z,1011.0
2018-08-14T11:23:44.420Z,1011.0
2018-08-14T11:24:45.877Z,1011.0
2018-08-14T11:26:07.309Z,1011.1
2018-08-14T11:27:08.700Z,1011.1
2018-08-14T11:28:30.189Z,1011.1
2018-08-14T11:29:31.580Z,1011.1
2018-08-14T11:30:53.085Z,1011.1
2018-08-14T11:31:54.477Z,1011.1
2018-08-14T11:33:15.972Z,1011.1
2018-08-14T11:34:17.364Z,1011.1
2018-08-14T11:35:38.845Z,1011.1
2018-08-14T11:36:40.237Z,1011.1
2018-08-14T11:38:01.741Z,1011.0
2018-08-14T11:39:03.135Z,1011.1
2018-08-14T11:40:24.620Z,1011.2
2018-08-14T11:41:26.026Z,1011.2
2018-08-14T11:42:47.492Z,1011.1
2018-08-14T11:43:48.885Z,1011.2
2018-08-14T11:45:10.381Z,1011.1
2018-08-14T11:46:11.773Z,1011.1
2018-08-14T11:47:33.253Z,1011.2
2018-08-14T11:48:34.644Z,1011.2
2018-08-14T11:49:56.124Z,1011.2
2018-08-14T11:50:57.587Z,1011.2
2018-08-14T11:52:19.021Z,1011.3
2018-08-14T11:53:20.416Z,1011.3
2018-08-14T11:54:41.893Z,1011.3
2018-08-14T11:55:43.285Z,1011.3
2018-08-14T11:57:04.773Z,1011.3
2018-08-14T11:58:06.165Z,1011.3
2018-08-14T11:59:27.675Z,1011.3
2018-08-14T12:00:29.061Z,1011.3
2018-08-14T12:01:50.549Z,1011.3
2018-08-14T12:02:51.941Z,1011.3
2018-08-14T12:04:13.421Z,1011.2
2018-08-14T12:05:14.813Z,1011.3
2018-08-14T12:06:36.301Z,1011.2
2018-08-14T12:07:37.694Z,1011.2
2018-08-14T12:08:59.173Z,1011.3
2018-08-14T12:10:00.566Z,1011.3
2018-08-14T12:11:22.111Z,1011.3
2018-08-14T12:12:23.401Z,1011.3
2018-08-14T12:13:44.894Z,1011.3
2018-08-14T12:14:46.285Z,1011.4
2018-08-14T12:16:07.774Z,1011.3
2018-08-14T12:17:09.173Z,1011.3
2018-08-14T12:18:30.716Z,1011.2
2018-08-14T12:19:32.054Z,1011.2
2018-08-14T12:20:53.550Z,1011.2
2018-08-14T12:21:54.946Z,1011.2
2018-08-14T12:23:16.422Z,1011.2
2018-08-14T12:24:17.814Z,1011.2
2018-08-14T12:25:39.297Z,1011.2
2018-08-14T12:26:40.686Z,1011.2
2018-08-14T12:28:02.183Z,1011.2
2018-08-14T12:29:03.574Z,1011.2
2018-08-14T12:30:25.054Z,1011.3
2018-08-14T12:31:26.447Z,1011.3
2018-08-14T12:32:47.931Z,1011.2
2018-08-14T12:33:49.320Z,1011.3
2018-08-14T12:35:10.822Z,1011.2
2018-08-14T12:36:12.207Z,1011.3
2018-08-14T12:37:33.686Z,1011.2
2018-08-14T12:38:35.080Z,1011.2
2018-08-14T12:39:56.559Z,1011.3
2018-08-14T12:40:57.950Z,1011.3
2018-08-14T12:42:19.446Z,1011.2
2018-08-14T12:43:20.847Z,1011.2
2018-08-14T12:44:42.326Z,1011.3
2018-08-14T12:45:43.718Z,1011.3
2018-08-14T12:47:05.199Z,1011.3
2018-08-14T12:48:06.597Z,1011.3
2018-08-14T12:49:28.087Z,1011.3
2018-08-14T12:50:29.479Z,1011.3
2018-08-14T12:51:50.962Z,1011.2
2018-08-14T12:52:52.351Z,1011.2
2018-08-14T12:54:13.831Z,1011.2
2018-08-14T12:55:15.223Z,1011.3
2018-08-14T12:56:36.720Z,1011.2
2018-08-14T12:57:38.112Z,1011.3
2018-08-14T12:58:59.592Z,1011.3
2018-08-14T13:00:00.999Z,1011.3
2018-08-14T13:01:22.485Z,1011.3
2018-08-14T13:02:23.872Z,1011.3
2018-08-14T13:03:45.373Z,1011.3
2018-08-14T13:04:46.759Z,1011.3
2018-08-14T13:06:08.239Z,1011.3
2018-08-14T13:07:09.633Z,1011.3
2018-08-14T13:08:31.120Z,1011.3
2018-08-14T13:09:32.512Z,1011.3
2018-08-14T13:10:54.016Z,1011.3
2018-08-14T13:11:55.415Z,1011.4
2018-08-14T13:13:16.895Z,1011.4
2018-08-14T13:14:18.288Z,1011.3
2018-08-14T13:15:39.784Z,1011.4
2018-08-14T13:16:41.169Z,1011.4
2018-08-14T13:18:02.672Z,1011.4
2018-08-14T13:19:04.064Z,1011.4
2018-08-14T13:20:25.598Z,1011.4
2018-08-14T13:21:26.935Z,1011.5
2018-08-14T13:22:48.424Z,1011.4
2018-08-14T13:23:49.815Z,1011.5
2018-08-14T13:25:11.320Z,1011.5
2018-08-14T13:26:12.712Z,1011.4
2018-08-14T13:27:34.200Z,1011.5
2018-08-14T13:28:35.592Z,1011.4
2018-08-14T13:29:57.072Z,1011.5
2018-08-14T13:30:58.464Z,1011.5
2018-08-14T13:32:19.984Z,1011.5
2018-08-14T13:33:21.368Z,1011.5
2018-08-14T13:34:42.848Z,1011.5
2018-08-14T13:35:44.240Z,1011.5
2018-08-14T13:37:05.720Z,1011.5
2018-08-14T13:38:07.112Z,1011.5
2018-08-14T13:39:28.616Z,1011.5
2018-08-14T13:40:30.009Z,1011.5
2018-08-14T13:41:51.496Z,1011.5
2018-08-14T13:42:52.890Z,1011.5
2018-08-14T13:44:14.360Z,1011.5
2018-08-14T13:45:15.752Z,1011.5
2018-08-14T13:46:37.240Z,1011.5
2018-08-14T13:47:38.627Z,1011.5
2018-08-14T13:49:00.105Z,1011.6
2018-08-14T13:50:01.498Z,1011.5
2018-08-14T13:51:22.976Z,1011.6
2018-08-14T13:52:24.368Z,1011.6
2018-08-14T13:53:46.012Z,1011.6
2018-08-14T13:54:47.224Z,1011.6
2018-08-14T13:56:08.712Z,1011.7
2018-08-14T13:57:10.105Z,1011.6
2018-08-14T13:58:31.585Z,1011.6
2018-08-14T13:59:32.978Z,1011.6
2018-08-14T14:00:54.481Z,1011.6
2018-08-14T14:01:55.873Z,1011.6
2018-08-14T14:03:17.353Z,1011.6
2018-08-14T14:04:18.745Z,1011.5
2018-08-14T14:05:40.225Z,1011.6
2018-08-14T14:06:41.618Z,1011.6
2018-08-14T14:08:03.250Z,1011.6
2018-08-14T14:09:04.633Z,1011.6
2018-08-14T14:10:26.125Z,1011.6
2018-08-14T14:11:27.505Z,1011.7
2018-08-14T14:12:48.984Z,1011.7
2018-08-14T14:13:50.378Z,1011.7
2018-08-14T14:15:11.881Z,1011.7
2018-08-14T14:16:13.273Z,1011.7
2018-08-14T14:17:34.752Z,1011.8
2018-08-14T14:18:36.145Z,1011.7
2018-08-14T14:19:57.625Z,1011.7
2018-08-14T14:20:59.042Z,1011.7
2018-08-14T14:22:20.521Z,1011.7
2018-08-14T14:23:21.913Z,1011.7
2018-08-14T14:24:43.394Z,1011.7
2018-08-14T14:25:44.785Z,1011.7
2018-08-14T14:27:06.265Z,1011.7
2018-08-14T14:28:07.658Z,1011.8
2018-08-14T14:29:29.153Z,1011.7
2018-08-14T14:30:30.546Z,1011.7
2018-08-14T14:31:52.075Z,1011.8
2018-08-14T14:32:53.425Z,1011.7
2018-08-14T14:34:14.922Z,1011.7
2018-08-14T14:35:16.308Z,1011.8
2018-08-14T14:36:37.805Z,1011.7
2018-08-14T14:37:39.259Z,1011.8
2018-08-14T14:39:00.637Z,1011.7
2018-08-14T14:40:02.025Z,1011.8
2018-08-14T14:41:23.507Z,1011.8
2018-08-14T14:42:24.897Z,1011.7
2018-08-14T14:43:46.394Z,1011.7
2018-08-14T14:44:47.791Z,1011.7
2018-08-14T14:46:09.267Z,1011.7
2018-08-14T14:47:10.658Z,1011.7
2018-08-14T14:48:32.138Z,1011.7
2018-08-14T14:49:33.530Z,1011.8
2018-08-14T14:50:55.026Z,1011.8